Time;durP1;ratioP1;P1;durP2;ratioP2;P2;SDS_P1;SDS_P2;PMS_P1;PMS_P2;Temp;Humidity;BMP_temperature;BMP_pressure;BME280_temperature;BME280_humidity;BME280_pressure;Samples;Min_cycle;Max_cycle;Signal;HPM_P1;HPM_P2
2022/08/02 00:02:19;;;;;;;6.45;2.40;;;;;;;15.28;75.41;101835.09;4995731;28;20026;-69
2022/08/02 00:04:45;;;;;;;8.95;2.55;;;;;;;15.15;76.54;101832.38;4997033;28;20398;-70
2022/08/02 00:07:11;;;;;;;8.02;2.33;;;;;;;15.38;75.31;101837.31;4997000;28;20026;-69
2022/08/02 00:09:36;;;;;;;4.97;2.30;;;;;;;15.45;75.05;101833.75;4996866;28;20034;-69
2022/08/02 00:12:02;;;;;;;3.70;2.25;;;;;;;15.30;74.93;101830.47;4995611;28;20027;-69
2022/08/02 00:14:27;;;;;;;6.13;2.50;;;;;;;15.21;75.07;101826.41;4996835;28;20033;-69
2022/08/02 00:16:53;;;;;;;7.00;2.70;;;;;;;15.12;75.80;101821.34;4996900;28;20312;-69
2022/08/02 00:19:18;;;;;;;7.20;2.53;;;;;;;15.00;76.54;101824.69;4996799;28;20025;-69
2022/08/02 00:21:43;;;;;;;8.32;2.70;;;;;;;14.98;76.45;101816.25;4995468;28;20078;-69
2022/08/02 00:24:09;;;;;;;11.50;3.05;;;;;;;15.03;76.38;101803.47;4996699;28;20105;-70
2022/08/02 00:26:34;;;;;;;6.55;2.45;;;;;;;14.97;76.94;101799.84;4995401;28;20128;-70
2022/08/02 00:28:59;;;;;;;5.93;2.42;;;;;;;15.03;76.89;101801.69;4996685;28;20031;-70
2022/08/02 00:31:26;;;;;;;6.40;2.70;;;;;;;15.07;76.69;101805.50;4996484;28;20029;-71
2022/08/02 00:33:51;;;;;;;4.90;2.47;;;;;;;14.81;78.06;101807.94;4995191;28;20091;-70
2022/08/02 00:36:17;;;;;;;8.50;2.80;;;;;;;14.50;78.83;101809.09;4995222;28;20113;-71
2022/08/02 00:38:42;;;;;;;6.70;2.30;;;;;;;14.59;79.07;101792.38;4996501;28;20041;-70
2022/08/02 00:41:13;;;;;;;6.38;2.75;;;;;;;14.61;80.11;101794.78;4995113;28;20068;-70
2022/08/02 00:43:38;;;;;;;7.18;2.80;;;;;;;14.94;78.78;101796.81;4995073;28;20026;-70
2022/08/02 00:46:03;;;;;;;10.95;2.13;;;;;;;14.72;79.23;101796.88;4996319;28;20036;-70
2022/08/02 00:48:29;;;;;;;5.20;2.40;;;;;;;14.86;79.58;101793.38;4996287;28;20470;-71
2022/08/02 00:50:55;;;;;;;8.35;2.50;;;;;;;14.81;78.91;101784.53;4996142;28;20026;-70
2022/08/02 00:53:21;;;;;;;6.05;2.20;;;;;;;14.71;79.47;101792.66;4994081;28;20093;-71
2022/08/02 00:55:46;;;;;;;6.57;2.40;;;;;;;14.88;79.48;101794.00;4996037;28;20022;-70
2022/08/02 00:58:12;;;;;;;13.43;2.55;;;;;;;15.02;79.39;101791.47;4996114;28;20026;-70
2022/08/02 01:00:37;;;;;;;10.40;2.42;;;;;;;15.19;78.52;101791.94;4995937;28;20030;-69
2022/08/02 01:03:02;;;;;;;6.03;2.33;;;;;;;15.11;78.55;101791.13;4994710;28;20030;-70
2022/08/02 01:05:27;;;;;;;4.78;2.25;;;;;;;15.03;78.31;101788.66;4994620;28;20030;-69
2022/08/02 01:07:53;;;;;;;5.60;2.50;;;;;;;14.76;78.97;101779.06;4994585;28;20022;-70
2022/08/02 01:10:18;;;;;;;10.82;2.75;;;;;;;14.81;78.87;101784.53;4994626;28;20109;-70
2022/08/02 01:12:44;;;;;;;5.88;2.50;;;;;;;14.92;79.04;101781.38;4994550;28;20158;-70
2022/08/02 01:15:11;;;;;;;10.38;2.70;;;;;;;14.96;78.38;101785.22;4995832;28;20426;-70
2022/08/02 01:17:54;;;;;;;12.13;2.78;;;;;;;14.98;78.17;101787.63;4995674;28;20038;-70
2022/08/02 01:20:44;;;;;;;5.82;2.53;;;;;;;14.84;79.01;101778.94;4994248;28;20061;-69
2022/08/02 01:23:37;;;;;;;10.85;2.45;;;;;;;14.81;79.19;101779.31;4995586;28;20093;-69
2022/08/02 01:26:18;;;;;;;6.68;2.53;;;;;;;14.96;79.05;101766.19;4995506;28;20030;-69
2022/08/02 01:29:00;;;;;;;13.20;3.03;;;;;;;14.84;79.47;101769.31;4995361;28;20034;-69
2022/08/02 01:31:48;;;;;;;7.43;2.47;;;;;;;14.93;79.34;101766.56;4995323;28;20029;-69
2022/08/02 01:34:35;;;;;;;7.00;2.60;;;;;;;14.98;78.91;101767.59;5000121;28;20046;-69
2022/08/02 01:37:23;;;;;;;9.32;2.60;;;;;;;14.68;79.33;101761.03;4995430;28;20049;-69
2022/08/02 01:39:55;;;;;;;5.75;2.50;;;;;;;14.86;79.72;101763.94;4993996;28;20081;-71
2022/08/02 01:42:23;;;;;;;9.18;2.90;;;;;;;14.79;79.48;101756.09;4995240;28;20026;-70
2022/08/02 01:44:52;;;;;;;6.82;2.78;;;;;;;14.83;79.47;101761.72;4995185;28;20482;-69
2022/08/02 01:47:21;;;;;;;11.23;3.00;;;;;;;14.75;79.71;101754.06;4995174;28;20473;-70
2022/08/02 01:49:50;;;;;;;6.93;2.70;;;;;;;14.64;80.14;101761.41;4994972;28;20022;-69
2022/08/02 01:52:20;;;;;;;10.15;2.80;;;;;;;14.73;80.17;101762.06;4995079;28;20045;-69
2022/08/02 01:55:09;;;;;;;8.77;3.10;;;;;;;14.70;79.63;101769.44;4993648;28;20052;-69
2022/08/02 01:57:39;;;;;;;8.65;2.90;;;;;;;14.78;80.13;101751.06;4994966;28;20117;-69
2022/08/02 02:00:10;;;;;;;9.02;2.50;;;;;;;14.91;79.54;101750.38;4994857;28;20500;-68
2022/08/02 02:02:40;;;;;;;8.80;2.65;;;;;;;15.08;79.17;101759.47;4994795;28;20022;-69
2022/08/02 02:05:10;;;;;;;6.78;2.70;;;;;;;15.07;79.00;101755.25;4994882;28;20033;-68
2022/08/02 02:07:37;;;;;;;5.68;2.35;;;;;;;14.89;79.59;101753.94;4994790;28;20030;-69
2022/08/02 02:10:04;;;;;;;6.90;2.60;;;;;;;14.47;80.27;101746.22;4994658;28;20041;-69
2022/08/02 02:12:32;;;;;;;7.65;2.60;;;;;;;14.76;80.45;101734.84;4993448;28;20038;-69
2022/08/02 02:15:00;;;;;;;8.93;2.70;;;;;;;14.72;80.14;101749.25;4993316;28;20065;-69
2022/08/02 02:17:28;;;;;;;7.95;2.40;;;;;;;14.75;80.06;101741.84;4994577;28;20081;-69
2022/08/02 02:19:54;;;;;;;6.38;2.20;;;;;;;14.87;80.15;101750.75;4994458;28;20097;-69
2022/08/02 02:22:19;;;;;;;9.82;2.63;;;;;;;14.97;79.44;101739.19;4994421;28;20471;-70
2022/08/02 02:24:45;;;;;;;7.43;2.80;;;;;;;14.93;79.96;101748.34;4994428;28;20029;-69
2022/08/02 02:27:12;;;;;;;7.22;2.63;;;;;;;14.91;79.84;101740.75;4993177;28;20174;-70
2022/08/02 02:29:44;;;;;;;9.70;2.28;;;;;;;14.94;79.51;101742.19;4994264;28;20030;-69
2022/08/02 02:32:11;;;;;;;9.40;2.30;;;;;;;15.08;79.08;101730.84;4993014;28;20129;-70
2022/08/02 02:34:42;;;;;;;7.03;2.30;;;;;;;14.81;79.46;101728.06;4994233;28;20455;-70
2022/08/02 02:37:13;;;;;;;8.05;2.40;;;;;;;14.77;79.62;101729.47;4994237;28;20057;-69
2022/08/02 02:39:40;;;;;;;7.80;2.35;;;;;;;14.93;78.95;101735.34;4994242;28;20061;-69
2022/08/02 02:42:09;;;;;;;6.53;2.20;;;;;;;14.86;78.62;101737.91;4992817;28;20026;-70
2022/08/02 02:44:37;;;;;;;6.32;2.17;;;;;;;14.96;78.99;101733.19;4994087;28;20501;-69
2022/08/02 02:47:03;;;;;;;7.22;2.25;;;;;;;14.99;78.68;101730.19;4994022;28;20105;-69
2022/08/02 02:49:31;;;;;;;6.07;2.50;;;;;;;15.01;77.52;101725.56;4992802;28;20030;-69
2022/08/02 02:51:58;;;;;;;7.07;2.10;;;;;;;15.06;77.07;101727.63;4993836;28;20072;-69
2022/08/02 02:54:25;;;;;;;6.15;2.17;;;;;;;15.09;77.00;101728.03;4992691;28;20041;-69
2022/08/02 02:56:51;;;;;;;7.05;2.20;;;;;;;15.18;76.05;101731.25;4994050;28;20036;-69
2022/08/02 02:59:17;;;;;;;5.88;2.03;;;;;;;15.25;76.32;101723.50;4992810;28;20544;-69
2022/08/02 03:01:43;;;;;;;5.70;2.17;;;;;;;15.19;76.17;101735.50;4993894;28;20023;-69
2022/08/02 03:04:10;;;;;;;6.70;2.10;;;;;;;15.16;76.30;101729.84;4992870;28;20452;-69
2022/08/02 03:06:36;;;;;;;9.48;1.90;;;;;;;15.20;76.51;101723.28;4993844;28;20069;-70
2022/08/02 03:09:03;;;;;;;4.32;2.03;;;;;;;15.17;76.72;101710.66;4993863;28;20023;-69
2022/08/02 03:11:29;;;;;;;7.60;2.17;;;;;;;15.19;77.23;101701.66;4992538;28;20088;-69
2022/08/02 03:13:59;;;;;;;7.63;2.20;;;;;;;15.27;76.13;101704.06;4992579;28;20125;-69
2022/08/02 03:16:27;;;;;;;9.35;2.08;;;;;;;14.89;77.96;101706.31;4994847;28;20033;-69
2022/08/02 03:18:53;;;;;;;6.10;2.10;;;;;;;15.08;77.42;101716.00;5000260;28;20026;-69
2022/08/02 03:21:18;;;;;;;6.30;2.58;;;;;;;15.01;77.63;101712.56;4998799;28;20405;-69
2022/08/02 03:23:44;;;;;;;6.82;2.30;;;;;;;14.94;77.61;101719.56;5000293;28;20061;-70
2022/08/02 03:26:09;;;;;;;5.40;1.98;;;;;;;14.82;78.05;101701.06;5000109;28;20027;-69
2022/08/02 03:28:35;;;;;;;4.93;1.90;;;;;;;14.85;78.35;101708.50;5000195;28;20126;-69
2022/08/02 03:31:02;;;;;;;6.05;1.95;;;;;;;14.96;77.77;101686.34;5000400;28;20485;-69
2022/08/02 03:33:28;;;;;;;9.15;2.20;;;;;;;14.94;77.71;101701.34;4998849;28;20110;-69
2022/08/02 03:35:57;;;;;;;10.25;2.33;;;;;;;14.74;78.20;101696.03;5000081;28;20034;-70
2022/08/02 03:38:24;;;;;;;6.30;2.10;;;;;;;14.85;77.91;101687.69;5000255;28;20033;-69
2022/08/02 03:40:49;;;;;;;6.88;2.20;;;;;;;14.87;77.06;101682.25;4999987;28;20044;-70
2022/08/02 03:43:16;;;;;;;6.45;1.85;;;;;;;14.70;78.47;101692.19;4999966;28;20105;-70
2022/08/02 03:45:44;;;;;;;7.70;2.05;;;;;;;14.80;77.77;101684.84;5000085;28;20489;-70
2022/08/02 03:48:11;;;;;;;5.50;1.90;;;;;;;14.82;77.96;101679.47;4999975;28;20065;-70
2022/08/02 03:50:38;;;;;;;6.72;2.20;;;;;;;15.04;76.51;101690.56;4999834;28;20073;-69
2022/08/02 03:53:05;;;;;;;5.90;2.05;;;;;;;15.18;76.82;101691.41;4999825;28;20084;-70
2022/08/02 03:55:31;;;;;;;7.57;2.53;;;;;;;15.24;76.22;101688.81;5000032;28;20053;-71
2022/08/02 03:57:57;;;;;;;7.03;2.03;;;;;;;15.31;76.24;101697.47;4999836;28;20030;-69
2022/08/02 04:00:22;;;;;;;3.88;1.80;;;;;;;15.34;76.08;101694.47;5000010;28;20053;-69
2022/08/02 04:02:48;;;;;;;6.55;1.98;;;;;;;15.22;76.46;101693.44;4998480;28;20037;-69
2022/08/02 04:05:15;;;;;;;6.70;2.10;;;;;;;15.35;75.80;101688.25;4999931;28;20037;-69
2022/08/02 04:07:42;;;;;;;6.32;1.73;;;;;;;15.40;76.55;101687.69;4999879;28;20026;-70
2022/08/02 04:10:08;;;;;;;7.70;1.92;;;;;;;15.46;74.73;101684.28;4999702;28;20041;-70
2022/08/02 04:12:33;;;;;;;5.18;1.90;;;;;;;15.40;74.62;101679.06;4999771;28;20026;-69
2022/08/02 04:15:00;;;;;;;9.25;2.35;;;;;;;15.56;74.65;101679.50;4999783;28;20038;-69
2022/08/02 04:17:30;;;;;;;6.55;1.92;;;;;;;15.38;74.22;101679.25;4998479;28;20034;-70
2022/08/02 04:20:00;;;;;;;11.05;2.00;;;;;;;15.38;73.58;101668.84;4998324;28;20050;-70
2022/08/02 04:22:32;;;;;;;5.20;1.95;;;;;;;15.46;73.41;101683.50;4998410;28;20541;-70
2022/08/02 04:25:01;;;;;;;12.27;1.98;;;;;;;15.39;73.50;101678.25;4999655;28;20380;-70
2022/08/02 04:27:29;;;;;;;5.88;1.88;;;;;;;15.34;73.70;101683.25;4997010;28;20490;-69
2022/08/02 04:29:56;;;;;;;6.10;1.98;;;;;;;15.42;73.69;101684.88;4994744;28;20029;-70
2022/08/02 04:32:22;;;;;;;3.42;1.58;;;;;;;15.47;73.69;101678.06;4996631;28;20030;-70
2022/08/02 04:34:47;;;;;;;3.97;1.75;;;;;;;15.38;73.70;101678.44;4995168;28;20049;-71
2022/08/02 04:37:13;;;;;;;6.80;1.88;;;;;;;15.42;73.70;101669.25;4996472;28;20058;-69
2022/08/02 04:39:42;;;;;;;6.38;2.00;;;;;;;15.57;73.28;101675.91;4996397;28;20113;-71
2022/08/02 04:42:08;;;;;;;6.00;2.20;;;;;;;15.53;73.59;101677.28;5011451;28;20474;-69
2022/08/02 04:44:33;;;;;;;8.60;1.85;;;;;;;15.59;73.19;101670.47;4995142;28;20037;-68
2022/08/02 04:47:01;;;;;;;7.82;1.80;;;;;;;15.64;73.25;101681.09;4994954;28;20089;-69
2022/08/02 04:49:30;;;;;;;5.93;1.92;;;;;;;15.79;72.68;101676.56;5011319;28;20034;-69
2022/08/02 04:51:55;;;;;;;8.57;2.10;;;;;;;15.76;73.05;101673.53;4994793;28;20030;-68
2022/08/02 04:54:20;;;;;;;5.55;2.05;;;;;;;15.88;72.59;101671.13;4996183;28;20077;-69
2022/08/02 04:56:46;;;;;;;8.23;2.03;;;;;;;15.91;72.13;101670.72;4995051;28;20034;-70
2022/08/02 04:59:11;;;;;;;5.80;1.70;;;;;;;15.93;72.06;101668.72;4996009;28;20478;-69
2022/08/02 05:01:38;;;;;;;4.78;1.88;;;;;;;15.88;72.11;101660.69;4995982;28;20542;-69
2022/08/02 05:04:04;;;;;;;5.13;2.03;;;;;;;15.97;71.79;101654.31;4996124;28;20081;-69
2022/08/02 05:06:30;;;;;;;4.80;1.92;;;;;;;15.99;71.94;101655.69;4994641;28;20065;-69
2022/08/02 05:08:55;;;;;;;5.57;2.05;;;;;;;15.98;72.06;101650.69;4995793;28;20061;-69
2022/08/02 05:11:21;;;;;;;4.07;1.92;;;;;;;15.99;71.79;101641.84;4995771;28;20026;-69
2022/08/02 05:13:47;;;;;;;7.85;2.10;;;;;;;16.09;71.27;101641.47;4994592;28;20097;-69
2022/08/02 05:16:12;;;;;;;7.63;2.00;;;;;;;16.26;70.62;101649.66;4995702;28;20474;-69
2022/08/02 05:18:37;;;;;;;6.25;1.92;;;;;;;16.23;70.44;101636.03;4994379;28;20027;-69
2022/08/02 05:21:03;;;;;;;6.20;2.08;;;;;;;16.35;70.03;101651.84;4995508;28;20039;-69
2022/08/02 05:23:28;;;;;;;9.23;2.13;;;;;;;16.46;69.07;101659.06;4995553;28;20077;-70
2022/08/02 05:25:53;;;;;;;6.03;2.10;;;;;;;16.41;69.40;101645.81;4995605;28;20034;-69
2022/08/02 05:28:19;;;;;;;7.15;2.00;;;;;;;16.55;68.98;101651.00;4994156;28;20134;-69
2022/08/02 05:30:44;;;;;;;5.55;2.03;;;;;;;16.64;68.73;101670.66;4995324;28;20465;-69
2022/08/02 05:33:09;;;;;;;11.25;2.08;;;;;;;16.89;67.60;101670.81;4995336;28;20026;-69
2022/08/02 05:35:35;;;;;;;5.43;2.10;;;;;;;16.80;67.54;101666.78;4994134;28;20049;-70
2022/08/02 05:38:00;;;;;;;5.80;2.20;;;;;;;16.90;67.78;101673.19;4995392;28;20053;-69
2022/08/02 05:40:26;;;;;;;9.18;1.90;;;;;;;17.03;67.02;101671.53;4995014;28;20026;-68
2022/08/02 05:42:52;;;;;;;4.43;1.75;;;;;;;16.92;67.90;101673.78;4993976;28;20069;-69
2022/08/02 05:45:17;;;;;;;7.13;2.10;;;;;;;17.18;67.00;101679.13;4995235;28;20486;-69
2022/08/02 05:47:43;;;;;;;9.07;2.22;;;;;;;17.53;66.28;101677.69;4995135;28;20478;-69
2022/08/02 05:50:09;;;;;;;7.18;2.22;;;;;;;17.45;66.05;101664.06;4995030;28;20030;-69
2022/08/02 05:52:49;;;;;;;5.93;2.00;;;;;;;17.46;65.77;101671.69;4995112;28;20038;-68
2022/08/02 05:55:27;;;;;;;5.40;2.40;;;;;;;17.51;65.91;101671.06;4994892;28;20030;-69
2022/08/02 05:58:29;;;;;;;6.50;1.80;;;;;;;17.76;64.98;101666.66;4993744;28;20028;-68
2022/08/02 06:00:58;;;;;;;8.93;2.33;;;;;;;19.10;61.21;101659.09;4973382;28;20044;-69
2022/08/02 06:03:30;;;;;;;7.78;2.10;;;;;;;24.84;44.89;101666.38;4994756;28;20036;-69
2022/08/02 06:05:59;;;;;;;6.95;2.20;;;;;;;26.69;40.22;101666.94;4994753;28;20106;-69
2022/08/02 06:08:40;;;;;;;9.35;2.15;;;;;;;28.10;37.27;101658.09;4994812;28;20052;-70
2022/08/02 06:11:11;;;;;;;5.80;2.00;;;;;;;28.26;36.37;101653.38;4993256;28;20031;-70
2022/08/02 06:13:37;;;;;;;7.35;2.20;;;;;;;27.52;38.26;101655.47;4993320;28;20034;-69
2022/08/02 06:16:04;;;;;;;4.95;1.92;;;;;;;27.45;38.08;101645.22;4994602;28;20072;-70
2022/08/02 06:18:32;;;;;;;11.82;2.20;;;;;;;26.46;40.46;101637.34;4994570;28;20037;-70
2022/08/02 06:21:01;;;;;;;6.15;2.08;;;;;;;27.82;37.45;101643.00;4994383;28;20494;-70
2022/08/02 06:23:27;;;;;;;8.23;2.10;;;;;;;28.18;36.77;101648.69;4993260;28;20482;-70
2022/08/02 06:25:55;;;;;;;8.57;2.72;;;;;;;28.77;36.01;101652.72;4994368;28;20129;-71
2022/08/02 06:28:21;;;;;;;7.95;2.10;;;;;;;30.36;33.29;101652.59;4994196;28;20056;-70
2022/08/02 06:30:47;;;;;;;12.60;2.42;;;;;;;30.12;33.70;101640.28;4994242;28;20501;-70
2022/08/02 06:33:12;;;;;;;7.22;2.17;;;;;;;29.50;34.54;101641.72;4994461;28;20026;-70
2022/08/02 06:35:49;;;;;;;8.30;2.33;;;;;;;29.18;34.77;101646.78;4994413;28;20389;-70
2022/08/02 06:38:20;;;;;;;9.25;2.80;;;;;;;28.90;35.77;101645.09;4994195;28;20076;-70
2022/08/02 06:41:02;;;;;;;6.35;2.42;;;;;;;31.18;32.31;101632.03;4992878;28;20023;-70
2022/08/02 06:43:49;;;;;;;8.15;2.53;;;;;;;29.57;34.67;101618.94;4994105;28;20029;-70
2022/08/02 06:46:15;;;;;;;8.55;2.80;;;;;;;31.03;32.79;101617.19;4992848;28;20121;-70
2022/08/02 06:48:40;;;;;;;12.18;2.85;;;;;;;29.16;36.00;101614.34;4993939;28;20110;-70
2022/08/02 06:51:06;;;;;;;6.28;2.75;;;;;;;29.77;34.42;101619.66;4993309;28;20029;-70
2022/08/02 06:53:31;;;;;;;8.98;3.15;;;;;;;28.36;37.10;101628.53;4994011;28;20057;-68
2022/08/02 06:55:57;;;;;;;8.00;3.10;;;;;;;28.40;37.57;101624.25;4993975;28;20061;-70
2022/08/02 06:58:22;;;;;;;6.95;3.20;;;;;;;28.60;37.23;101625.84;4992585;28;20018;-70
2022/08/02 07:00:48;;;;;;;7.13;3.45;;;;;;;28.29;37.83;101617.47;4993923;28;20021;-69
2022/08/02 07:03:13;;;;;;;9.57;3.35;;;;;;;30.88;33.65;101626.38;4993936;28;20490;-70
2022/08/02 07:05:40;;;;;;;9.82;3.70;;;;;;;29.48;35.55;101623.38;4993853;28;20072;-70
2022/08/02 07:08:05;;;;;;;10.48;3.50;;;;;;;27.95;38.67;101615.75;4992547;28;20507;-70
2022/08/02 07:10:30;;;;;;;8.70;3.60;;;;;;;28.05;38.26;101615.66;4993873;28;20022;-70
2022/08/02 07:12:56;;;;;;;11.15;4.03;;;;;;;26.79;41.85;101616.53;4992594;28;20022;-70
2022/08/02 07:15:21;;;;;;;9.15;3.90;;;;;;;27.95;39.08;101615.75;4992494;28;20026;-70
2022/08/02 07:17:46;;;;;;;8.27;3.90;;;;;;;28.64;38.39;101610.09;4992511;28;20022;-70
2022/08/02 07:20:13;;;;;;;8.82;4.18;;;;;;;28.92;38.19;101616.34;4993593;28;20380;-69
2022/08/02 07:22:39;;;;;;;10.60;4.35;;;;;;;28.87;37.94;101598.56;4993664;28;20493;-69
2022/08/02 07:25:05;;;;;;;10.20;4.40;;;;;;;25.97;43.66;101601.00;4993723;28;20030;-71
2022/08/02 07:27:31;;;;;;;12.13;4.93;;;;;;;23.65;49.43;101603.50;4993748;28;20053;-68
2022/08/02 07:29:57;;;;;;;10.73;5.15;;;;;;;25.34;46.30;101608.53;4993618;28;20030;-68
2022/08/02 07:32:25;;;;;;;11.50;5.00;;;;;;;27.84;41.19;101601.03;4993622;28;20022;-69
2022/08/02 07:34:51;;;;;;;12.30;4.80;;;;;;;28.12;40.56;101605.47;4993642;28;20110;-69
2022/08/02 07:37:16;;;;;;;9.73;4.25;;;;;;;27.21;42.71;101597.38;4992215;28;20050;-69
2022/08/02 07:39:42;;;;;;;11.27;4.90;;;;;;;25.89;45.87;101596.25;4992341;28;20113;-70
2022/08/02 07:42:07;;;;;;;7.13;4.20;;;;;;;25.49;46.81;101594.47;4992211;28;20058;-71
2022/08/02 07:44:35;;;;;;;11.02;4.93;;;;;;;24.61;49.41;101598.94;4993484;28;20543;-70
2022/08/02 07:47:01;;;;;;;8.07;4.70;;;;;;;24.43;50.25;101602.88;4993501;28;20052;-70
2022/08/02 07:49:27;;;;;;;10.85;5.50;;;;;;;24.32;50.67;101599.38;4992133;28;20019;-70
2022/08/02 07:51:52;;;;;;;11.10;5.13;;;;;;;24.29;51.40;101589.31;4993287;28;20367;-70
2022/08/02 07:54:17;;;;;;;12.35;4.80;;;;;;;24.96;50.28;101586.81;4993413;28;20033;-69
2022/08/02 07:56:43;;;;;;;13.25;5.55;;;;;;;25.49;49.30;101590.00;4993433;28;20026;-70
2022/08/02 07:59:09;;;;;;;10.60;5.38;;;;;;;25.14;50.33;101583.66;4993347;28;20058;-70
2022/08/02 08:01:34;;;;;;;11.25;5.05;;;;;;;25.85;49.88;101588.06;4992176;28;20019;-70
2022/08/02 08:04:00;;;;;;;14.75;5.93;;;;;;;25.42;50.26;101586.84;4996735;28;20034;-70
2022/08/02 08:06:25;;;;;;;15.80;6.93;;;;;;;25.37;51.55;101581.53;4997084;28;20039;-69
2022/08/02 08:08:50;;;;;;;13.85;6.88;;;;;;;25.29;52.19;101585.53;4997100;28;20293;-70
2022/08/02 08:11:16;;;;;;;17.42;6.90;;;;;;;25.24;52.52;101584.75;4996889;28;20022;-70
2022/08/02 08:13:41;;;;;;;11.38;6.60;;;;;;;24.29;56.25;101593.81;4995669;28;20080;-70
2022/08/02 08:16:06;;;;;;;17.88;7.00;;;;;;;24.62;54.91;101594.44;4995596;28;20117;-70
2022/08/02 08:18:31;;;;;;;11.27;6.22;;;;;;;24.28;55.69;101584.28;4995871;28;20141;-70
2022/08/02 08:20:57;;;;;;;11.65;6.28;;;;;;;24.71;54.75;101585.72;4996615;28;20042;-70
2022/08/02 08:23:23;;;;;;;10.07;6.07;;;;;;;24.99;54.49;101581.00;4996731;28;20506;-69
2022/08/02 08:25:48;;;;;;;11.15;6.45;;;;;;;23.85;56.57;101573.00;4995372;28;20029;-69
2022/08/02 08:28:14;;;;;;;13.18;5.85;;;;;;;24.87;54.46;101591.06;4996678;28;20026;-69
2022/08/02 08:30:40;;;;;;;13.45;4.97;;;;;;;24.98;53.97;101580.22;4995281;28;20391;-69
2022/08/02 08:33:06;;;;;;;7.90;4.55;;;;;;;25.57;51.83;101568.28;4995286;28;20535;-69
2022/08/02 08:35:31;;;;;;;9.05;4.40;;;;;;;26.23;50.96;101569.13;4996500;28;20083;-69
2022/08/02 08:37:57;;;;;;;9.70;4.80;;;;;;;24.81;53.29;101579.69;4995194;28;20385;-69
2022/08/02 08:40:23;;;;;;;7.60;4.40;;;;;;;25.39;52.71;101572.28;4996403;28;20018;-70
2022/08/02 08:42:49;;;;;;;9.25;4.82;;;;;;;25.76;50.91;101563.19;4995131;28;20088;-70
2022/08/02 08:45:15;;;;;;;8.65;4.10;;;;;;;25.13;52.90;101584.72;4995180;28;20030;-69
2022/08/02 08:47:41;;;;;;;7.18;4.55;;;;;;;25.17;53.20;101583.13;4994967;28;20085;-69
2022/08/02 08:50:08;;;;;;;8.93;4.65;;;;;;;25.69;51.69;101577.78;4996014;28;20049;-69
2022/08/02 08:52:38;;;;;;;9.43;4.50;;;;;;;25.79;51.94;101583.06;4996255;28;20470;-68
2022/08/02 08:55:05;;;;;;;9.27;4.93;;;;;;;24.93;53.52;101588.16;4995108;28;20022;-69
2022/08/02 08:57:33;;;;;;;8.77;4.47;;;;;;;24.86;53.32;101587.63;4994902;28;20026;-70
2022/08/02 08:59:59;;;;;;;8.25;5.00;;;;;;;25.46;52.38;101579.94;4994730;28;20392;-69
2022/08/02 09:02:24;;;;;;;8.38;4.63;;;;;;;25.57;52.38;101581.50;4996067;28;20030;-69
2022/08/02 09:04:50;;;;;;;8.30;4.90;;;;;;;25.96;51.36;101577.47;4994765;28;20544;-69
2022/08/02 09:07:15;;;;;;;6.43;4.35;;;;;;;26.69;50.14;101579.47;4995958;28;20122;-69
2022/08/02 09:09:41;;;;;;;7.95;4.40;;;;;;;26.32;50.89;101578.06;4995978;28;20109;-70
2022/08/02 09:12:13;;;;;;;5.95;3.78;;;;;;;26.71;49.45;101577.34;4995725;28;20018;-69
2022/08/02 09:14:39;;;;;;;9.52;3.83;;;;;;;26.97;48.54;101591.97;4993841;28;20548;-69
2022/08/02 09:17:07;;;;;;;6.78;4.28;;;;;;;27.22;47.59;101587.56;4995736;28;20030;-69
2022/08/02 09:19:32;;;;;;;8.48;4.20;;;;;;;26.84;48.75;101584.66;4995489;28;20030;-70
2022/08/02 09:22:09;;;;;;;5.63;4.03;;;;;;;26.57;49.46;101597.59;4994319;28;20489;-70
2022/08/02 09:24:46;;;;;;;7.18;4.43;;;;;;;26.59;49.79;101590.16;4994455;28;20033;-70
2022/08/02 09:27:20;;;;;;;9.05;3.95;;;;;;;27.00;49.68;101583.47;4995523;28;20346;-70
2022/08/02 09:29:53;;;;;;;7.05;4.50;;;;;;;26.52;49.53;101596.53;4994260;28;20109;-70
2022/08/02 09:32:18;;;;;;;10.15;4.90;;;;;;;26.34;50.96;101586.53;4994066;28;20498;-70
2022/08/02 09:34:44;;;;;;;8.52;5.22;;;;;;;26.84;49.63;101582.00;4995255;28;20030;-70
2022/08/02 09:37:29;;;;;;;12.13;6.30;;;;;;;26.83;49.92;101583.06;4995460;28;20030;-70
2022/08/02 09:39:58;;;;;;;11.73;5.22;;;;;;;27.57;49.30;101582.97;4994026;28;20030;-69
2022/08/02 09:42:23;;;;;;;7.97;4.90;;;;;;;28.54;46.59;101590.56;4994014;28;20485;-70
2022/08/02 09:44:56;;;;;;;9.57;5.05;;;;;;;28.39;46.71;101576.66;4995237;28;20034;-69
2022/08/02 09:47:23;;;;;;;10.45;4.78;;;;;;;29.17;45.84;101583.97;4993815;28;20026;-70
2022/08/02 09:49:48;;;;;;;8.40;5.03;;;;;;;28.58;46.58;101574.84;4993820;28;20121;-71
2022/08/02 09:52:13;;;;;;;11.68;5.85;;;;;;;26.99;50.49;101579.25;4993825;28;20112;-70
2022/08/02 09:54:39;;;;;;;9.18;5.80;;;;;;;27.04;50.94;101574.97;4994967;28;20105;-70
2022/08/02 09:57:04;;;;;;;11.40;6.13;;;;;;;26.75;50.93;101578.38;4994968;28;20027;-70
2022/08/02 09:59:30;;;;;;;13.73;7.03;;;;;;;26.47;52.64;101585.13;4995251;28;20538;-70
2022/08/02 10:01:57;;;;;;;9.73;6.10;;;;;;;26.52;53.09;101585.16;4993587;28;20430;-70
2022/08/02 10:04:24;;;;;;;10.68;6.32;;;;;;;26.39;53.20;101583.09;4994777;28;20101;-68
2022/08/02 10:06:51;;;;;;;13.88;6.32;;;;;;;26.69;52.78;101595.38;4994722;28;20026;-70
2022/08/02 10:09:18;;;;;;;10.00;5.80;;;;;;;27.10;52.38;101593.19;4993411;28;20029;-69
2022/08/02 10:11:43;;;;;;;17.92;7.60;;;;;;;26.76;52.09;101593.22;4993218;28;20118;-69
2022/08/02 10:14:09;;;;;;;9.50;5.60;;;;;;;27.26;51.25;101582.50;4994601;28;20112;-70
2022/08/02 10:16:41;;;;;;;11.27;5.65;;;;;;;27.58;49.90;101582.69;4994560;28;20037;-70
2022/08/02 10:19:06;;;;;;;10.35;5.47;;;;;;;27.89;48.65;101579.72;4993243;28;20101;-70
2022/08/02 10:21:46;;;;;;;10.18;5.15;;;;;;;28.85;47.27;101592.75;4994450;28;20084;-69
2022/08/02 10:24:15;;;;;;;11.27;4.95;;;;;;;27.98;47.30;101595.81;4993175;28;20018;-69
2022/08/02 10:26:43;;;;;;;9.15;4.20;;;;;;;28.89;47.20;101590.31;4993469;28;20385;-69
2022/08/02 10:29:10;;;;;;;7.97;4.22;;;;;;;28.51;47.13;101595.66;4994375;28;20027;-69
2022/08/02 10:31:44;;;;;;;6.75;3.72;;;;;;;28.68;46.57;101603.13;4993059;28;20038;-70
2022/08/02 10:34:13;;;;;;;7.20;3.83;;;;;;;27.53;48.09;101580.09;4992963;28;20027;-70
2022/08/02 10:36:41;;;;;;;7.22;3.30;;;;;;;27.89;47.52;101577.06;4994196;28;20033;-69
2022/08/02 10:39:07;;;;;;;7.00;3.72;;;;;;;27.22;47.99;101561.03;4994110;28;20044;-70
2022/08/02 10:41:42;;;;;;;6.55;4.00;;;;;;;27.15;48.84;101568.50;4994323;28;20026;-70
2022/08/02 10:44:07;;;;;;;6.78;4.03;;;;;;;27.98;47.08;101564.72;4992822;28;20041;-69
2022/08/02 10:46:36;;;;;;;8.75;3.90;;;;;;;28.24;46.60;101567.84;4994138;28;20022;-69
2022/08/02 10:49:13;;;;;;;5.35;3.20;;;;;;;28.77;43.74;101572.94;4992751;28;20474;-70
2022/08/02 10:51:53;;;;;;;5.78;3.00;;;;;;;29.26;42.73;101573.44;4992644;28;20068;-69
2022/08/02 10:54:40;;;;;;;5.47;2.65;;;;;;;29.32;42.30;101556.31;4992658;28;20508;-70
2022/08/02 10:57:18;;;;;;;4.28;2.42;;;;;;;29.20;42.06;101556.81;4993583;28;20097;-70
2022/08/02 10:59:44;;;;;;;5.13;2.75;;;;;;;28.77;42.18;101551.66;4993496;28;20030;-70
2022/08/02 11:02:10;;;;;;;5.18;2.60;;;;;;;28.33;44.49;101555.47;4993805;28;20053;-69
2022/08/02 11:04:35;;;;;;;3.72;2.50;;;;;;;28.95;42.95;101558.00;4993802;28;20034;-69
2022/08/02 11:07:07;;;;;;;8.37;2.70;;;;;;;29.38;41.37;101565.00;4993852;28;20029;-70
2022/08/02 11:09:33;;;;;;;4.30;2.45;;;;;;;29.14;41.26;101565.94;4993765;28;20026;-70
2022/08/02 11:12:04;;;;;;;7.40;2.50;;;;;;;29.34;40.53;101556.03;4993658;28;20394;-69
2022/08/02 11:14:30;;;;;;;7.18;2.67;;;;;;;29.09;41.17;101559.91;4993663;28;20026;-70
2022/08/02 11:16:55;;;;;;;4.28;2.25;;;;;;;28.98;40.63;101553.97;4993814;28;20381;-70
2022/08/02 11:19:26;;;;;;;5.97;2.47;;;;;;;29.43;40.18;101562.22;4993796;28;20038;-71
2022/08/02 11:22:00;;;;;;;4.88;2.40;;;;;;;29.91;39.11;101551.97;4993510;28;20038;-69
2022/08/02 11:24:31;;;;;;;5.20;2.15;;;;;;;30.00;38.85;101553.94;4993575;28;20030;-69
2022/08/02 11:26:58;;;;;;;3.78;2.30;;;;;;;30.53;37.50;101567.44;4993646;28;20028;-70
2022/08/02 11:29:37;;;;;;;4.18;2.40;;;;;;;29.85;38.68;101555.84;4993706;28;20052;-70